createdAt,value
2022-09-06T00:00:26.379Z,0.00
2022-09-06T00:01:26.361Z,0.00
2022-09-06T00:02:26.426Z,0.00
2022-09-06T00:03:26.338Z,0.00
2022-09-06T00:04:26.394Z,0.00
2022-09-06T00:05:26.315Z,0.00
2022-09-06T00:06:26.306Z,0.00
2022-09-06T00:07:26.292Z,0.00
2022-09-06T00:08:26.432Z,0.00
2022-09-06T00:09:26.273Z,0.00
2022-09-06T00:10:26.267Z,0.00
2022-09-06T00:11:26.249Z,0.00
2022-09-06T00:12:26.242Z,0.00
2022-09-06T00:13:26.228Z,0.00
2022-09-06T00:14:26.218Z,0.00
2022-09-06T00:15:26.205Z,0.00
2022-09-06T00:16:30.151Z,0.00
2022-09-06T00:17:26.184Z,0.00
2022-09-06T00:18:26.177Z,0.00
2022-09-06T00:19:26.161Z,0.00
2022-09-06T00:20:26.154Z,0.00
2022-09-06T00:21:26.138Z,0.00
2022-09-06T00:22:26.130Z,0.00
2022-09-06T00:23:26.118Z,0.00
2022-09-06T00:24:26.106Z,0.00
2022-09-06T00:25:26.095Z,0.00
2022-09-06T00:26:26.086Z,0.00
2022-09-06T00:27:26.071Z,0.00
2022-09-06T00:28:26.125Z,0.00
2022-09-06T00:29:26.051Z,0.00
2022-09-06T00:30:26.046Z,0.00
2022-09-06T00:31:26.085Z,0.00
2022-09-06T00:32:26.018Z,0.00
2022-09-06T00:33:26.005Z,0.00
2022-09-06T00:34:25.996Z,0.00
2022-09-06T00:35:25.986Z,0.00
2022-09-06T00:36:25.975Z,0.00
2022-09-06T00:37:25.963Z,0.00
2022-09-06T00:38:25.990Z,0.00
2022-09-06T00:39:25.990Z,0.00
2022-09-06T00:40:25.930Z,0.00
2022-09-06T00:41:25.918Z,0.00
2022-09-06T00:42:25.907Z,0.00
2022-09-06T00:43:25.901Z,0.00
2022-09-06T00:44:25.886Z,0.00
2022-09-06T00:45:25.875Z,0.00
2022-09-06T00:46:26.099Z,0.00
2022-09-06T00:47:25.854Z,0.00
2022-09-06T00:48:25.915Z,0.00
2022-09-06T00:49:25.831Z,0.00
2022-09-06T00:50:25.819Z,0.00
2022-09-06T00:51:25.806Z,0.00
2022-09-06T00:52:25.800Z,0.00
2022-09-06T00:53:25.785Z,0.00
2022-09-06T00:54:25.774Z,0.00
2022-09-06T00:55:25.763Z,0.00
2022-09-06T00:56:25.752Z,0.00
2022-09-06T00:57:25.742Z,0.00
2022-09-06T00:58:25.729Z,0.00
2022-09-06T00:59:25.717Z,0.00
2022-09-06T01:00:25.707Z,0.00
2022-09-06T01:01:25.788Z,0.00
2022-09-06T01:02:25.866Z,0.00
2022-09-06T01:03:25.675Z,0.00
2022-09-06T01:04:25.664Z,0.00
2022-09-06T01:05:25.651Z,0.00
2022-09-06T01:06:25.640Z,0.00
2022-09-06T01:07:25.630Z,0.00
2022-09-06T01:08:25.734Z,0.00
2022-09-06T01:09:25.605Z,0.00
2022-09-06T01:10:25.599Z,0.00
2022-09-06T01:11:25.584Z,0.00
2022-09-06T01:12:25.575Z,0.00
2022-09-06T01:13:25.564Z,0.00
2022-09-06T01:14:25.555Z,0.00
2022-09-06T01:15:25.611Z,0.00
2022-09-06T01:16:25.531Z,0.00
2022-09-06T01:17:25.519Z,0.00
2022-09-06T01:18:25.513Z,0.00
2022-09-06T01:19:25.497Z,0.00
2022-09-06T01:20:25.487Z,0.00
2022-09-06T01:21:25.477Z,0.00
2022-09-06T01:22:25.464Z,0.00
2022-09-06T01:23:25.458Z,0.00
2022-09-06T01:24:25.440Z,0.00
2022-09-06T01:25:25.437Z,0.00
2022-09-06T01:26:25.424Z,0.00
2022-09-06T01:27:25.409Z,0.00
2022-09-06T01:28:25.461Z,0.00
2022-09-06T01:29:25.387Z,0.00
2022-09-06T01:30:25.374Z,0.00
2022-09-06T01:31:25.439Z,0.00
2022-09-06T01:32:25.354Z,0.00
2022-09-06T01:33:25.343Z,0.00
2022-09-06T01:34:25.330Z,0.00
2022-09-06T01:35:25.322Z,0.00
2022-09-06T01:36:25.310Z,0.00
2022-09-06T01:37:25.299Z,0.00
2022-09-06T01:38:25.342Z,0.00
2022-09-06T01:39:25.347Z,0.00
2022-09-06T01:40:25.266Z,0.00
2022-09-06T01:41:25.257Z,0.00
2022-09-06T01:42:25.245Z,0.00
2022-09-06T01:43:25.234Z,0.00
2022-09-06T01:44:25.222Z,0.00
2022-09-06T01:45:25.212Z,0.00
2022-09-06T01:46:25.282Z,0.00
2022-09-06T01:47:25.190Z,0.00
2022-09-06T01:48:25.236Z,0.00
2022-09-06T01:49:25.169Z,0.00
2022-09-06T01:50:25.156Z,0.00
2022-09-06T01:51:25.148Z,0.00
2022-09-06T01:52:25.134Z,0.00
2022-09-06T01:53:25.126Z,0.00
2022-09-06T01:54:25.112Z,0.00
2022-09-06T01:55:25.102Z,0.00
2022-09-06T01:56:25.091Z,0.00
2022-09-06T01:57:25.080Z,0.00
2022-09-06T01:58:25.214Z,0.00
2022-09-06T01:59:25.056Z,0.00
2022-09-06T02:00:25.044Z,0.00
2022-09-06T02:01:25.160Z,0.00
2022-09-06T02:02:25.119Z,0.00
2022-09-06T02:03:25.014Z,0.00
2022-09-06T02:04:25.002Z,0.00
2022-09-06T02:05:24.997Z,0.00
2022-09-06T02:06:24.981Z,0.00
2022-09-06T02:07:24.970Z,0.00
2022-09-06T02:08:24.959Z,0.00
2022-09-06T02:09:24.949Z,0.00
2022-09-06T02:10:24.935Z,0.00
2022-09-06T02:11:24.925Z,0.00
2022-09-06T02:12:24.914Z,0.00
2022-09-06T02:13:24.903Z,0.00
2022-09-06T02:14:24.894Z,0.00
2022-09-06T02:15:24.881Z,0.00
2022-09-06T02:16:24.917Z,0.00
2022-09-06T02:17:24.861Z,0.00
2022-09-06T02:18:24.881Z,0.00
2022-09-06T02:19:24.836Z,0.00
2022-09-06T02:20:24.832Z,0.00
2022-09-06T02:21:24.815Z,0.00
2022-09-06T02:22:24.805Z,0.00
2022-09-06T02:23:24.793Z,0.00
2022-09-06T02:24:24.780Z,0.00
2022-09-06T02:25:24.774Z,0.00
2022-09-06T02:26:24.758Z,0.00
2022-09-06T02:27:24.750Z,0.00
2022-09-06T02:28:24.749Z,0.00
2022-09-06T02:29:24.727Z,0.00
2022-09-06T02:30:24.918Z,0.00
2022-09-06T02:31:24.706Z,0.00
2022-09-06T02:32:24.694Z,0.00
2022-09-06T02:33:24.686Z,0.00
2022-09-06T02:34:24.670Z,0.00
2022-09-06T02:35:24.660Z,0.00
2022-09-06T02:36:24.648Z,0.00
2022-09-06T02:37:24.640Z,0.00
2022-09-06T02:38:24.633Z,0.00
2022-09-06T02:39:24.655Z,0.00
2022-09-06T02:40:24.604Z,0.00
2022-09-06T02:41:24.595Z,0.00
2022-09-06T02:42:24.581Z,0.00
2022-09-06T02:43:24.577Z,0.00
2022-09-06T02:44:24.561Z,0.00
2022-09-06T02:45:24.552Z,0.00
2022-09-06T02:46:24.628Z,0.00
2022-09-06T02:47:24.527Z,0.00
2022-09-06T02:48:24.516Z,0.00
2022-09-06T02:49:24.505Z,0.00
2022-09-06T02:50:24.493Z,0.00
2022-09-06T02:51:24.484Z,0.00
2022-09-06T02:52:24.470Z,0.00
2022-09-06T02:53:24.460Z,0.00
2022-09-06T02:54:24.446Z,0.00
2022-09-06T02:55:24.440Z,0.00
2022-09-06T02:56:24.425Z,0.00
2022-09-06T02:57:24.419Z,0.00
2022-09-06T02:58:24.508Z,0.00
2022-09-06T02:59:24.393Z,0.00
2022-09-06T03:00:24.384Z,0.00
2022-09-06T03:01:24.439Z,0.00
2022-09-06T03:02:24.416Z,0.00
2022-09-06T03:03:24.349Z,0.00
2022-09-06T03:04:24.337Z,0.00
2022-09-06T03:05:24.327Z,0.00
2022-09-06T03:06:24.317Z,0.00
2022-09-06T03:07:24.304Z,0.00
2022-09-06T03:08:24.293Z,0.00
2022-09-06T03:09:24.283Z,0.00
2022-09-06T03:10:24.269Z,0.00
2022-09-06T03:11:24.262Z,0.00
2022-09-06T03:12:24.248Z,0.00
2022-09-06T03:13:24.244Z,0.00
2022-09-06T03:14:24.227Z,0.00
2022-09-06T03:15:24.216Z,0.00
2022-09-06T03:16:24.286Z,0.00
2022-09-06T03:17:24.201Z,0.00
2022-09-06T03:18:24.181Z,0.00
2022-09-06T03:19:24.171Z,0.00
2022-09-06T03:20:24.159Z,0.00
2022-09-06T03:21:24.150Z,0.00
2022-09-06T03:22:24.140Z,0.00
2022-09-06T03:23:24.129Z,0.00
2022-09-06T03:24:24.116Z,0.00
2022-09-06T03:25:24.105Z,0.00
2022-09-06T03:26:24.094Z,0.00
2022-09-06T03:27:24.083Z,0.00
2022-09-06T03:28:24.074Z,0.00
2022-09-06T03:29:24.061Z,0.00
2022-09-06T03:30:24.166Z,0.00
2022-09-06T03:31:24.040Z,0.00
2022-09-06T03:32:24.027Z,0.00
2022-09-06T03:33:24.023Z,0.00
2022-09-06T03:34:24.003Z,0.00
2022-09-06T03:35:23.995Z,0.00
2022-09-06T03:36:23.981Z,0.00
2022-09-06T03:37:23.974Z,0.00
2022-09-06T03:38:23.959Z,0.00
2022-09-06T03:39:24.003Z,0.00
2022-09-06T03:40:23.940Z,0.00
2022-09-06T03:41:23.929Z,0.00
2022-09-06T03:42:23.917Z,0.00
2022-09-06T03:43:23.914Z,0.00
2022-09-06T03:44:23.897Z,0.00
2022-09-06T03:45:23.887Z,0.00
2022-09-06T03:46:23.929Z,0.00
2022-09-06T03:47:23.862Z,0.00
2022-09-06T03:48:23.945Z,0.00
2022-09-06T03:49:23.841Z,0.00
2022-09-06T03:50:23.827Z,0.00
2022-09-06T03:51:23.817Z,0.00
2022-09-06T03:52:23.805Z,0.00
2022-09-06T03:53:23.795Z,0.00
2022-09-06T03:54:23.784Z,0.00
2022-09-06T03:55:23.776Z,0.00
2022-09-06T03:56:23.761Z,0.00
2022-09-06T03:57:23.753Z,0.00
2022-09-06T03:58:23.780Z,0.00
2022-09-06T03:59:23.731Z,0.00
2022-09-06T04:00:23.768Z,0.00
2022-09-06T04:01:23.743Z,0.00
2022-09-06T04:02:23.757Z,0.00
2022-09-06T04:03:23.687Z,0.00
2022-09-06T04:04:23.674Z,0.00
2022-09-06T04:05:23.665Z,0.00
2022-09-06T04:06:23.650Z,0.00
2022-09-06T04:07:23.891Z,0.00
2022-09-06T04:08:23.766Z,0.00
2022-09-06T04:09:23.829Z,0.00
2022-09-06T04:10:23.610Z,0.00
2022-09-06T04:11:23.606Z,0.00
2022-09-06T04:12:23.585Z,0.00
2022-09-06T04:13:23.576Z,0.00
2022-09-06T04:14:23.566Z,0.00
2022-09-06T04:15:23.554Z,0.00
2022-09-06T04:16:23.615Z,0.00
2022-09-06T04:17:23.532Z,0.00
2022-09-06T04:18:23.616Z,0.00
2022-09-06T04:19:23.508Z,0.00
2022-09-06T04:20:23.503Z,0.00
2022-09-06T04:21:23.486Z,0.00
2022-09-06T04:22:23.474Z,0.00
2022-09-06T04:23:23.467Z,0.00
2022-09-06T04:24:23.458Z,0.00
2022-09-06T04:25:23.441Z,0.00
2022-09-06T04:26:23.431Z,0.00
2022-09-06T04:27:23.427Z,0.00
2022-09-06T04:28:23.449Z,0.00
2022-09-06T04:29:23.399Z,0.00
2022-09-06T04:30:23.386Z,0.00
2022-09-06T04:31:23.448Z,0.00
2022-09-06T04:32:23.365Z,0.00
2022-09-06T04:33:23.354Z,0.00
2022-09-06T04:34:23.341Z,0.00
2022-09-06T04:35:23.333Z,0.00
2022-09-06T04:36:23.319Z,0.00
2022-09-06T04:37:23.310Z,0.00
2022-09-06T04:38:23.416Z,0.00
2022-09-06T04:39:23.316Z,0.00
2022-09-06T04:40:23.274Z,0.00
2022-09-06T04:41:23.268Z,0.00
2022-09-06T04:42:23.251Z,0.00
2022-09-06T04:43:23.243Z,0.00
2022-09-06T04:44:23.233Z,0.00
2022-09-06T04:45:23.220Z,0.00
2022-09-06T04:46:23.291Z,0.00
2022-09-06T04:47:23.201Z,0.00
2022-09-06T04:48:23.240Z,0.00
2022-09-06T04:49:23.187Z,0.00
2022-09-06T04:50:23.164Z,0.00
2022-09-06T04:51:23.155Z,0.00
2022-09-06T04:52:25.998Z,0.00
2022-09-06T04:53:23.132Z,0.00
2022-09-06T04:54:23.121Z,0.00
2022-09-06T04:55:23.112Z,0.00
2022-09-06T04:56:23.102Z,0.00
2022-09-06T04:57:23.097Z,0.00
2022-09-06T04:58:23.107Z,0.00
2022-09-06T04:59:23.070Z,5.62
2022-09-06T05:00:23.054Z,5.62
2022-09-06T05:01:23.387Z,5.62
2022-09-06T05:02:23.080Z,5.62
2022-09-06T05:03:23.021Z,5.62
2022-09-06T05:04:23.008Z,5.62
2022-09-06T05:05:23.003Z,5.62
2022-09-06T05:06:22.989Z,5.62
2022-09-06T05:07:22.976Z,5.62
2022-09-06T05:08:23.018Z,5.62
2022-09-06T05:09:22.956Z,5.62
2022-09-06T05:10:22.945Z,5.62
2022-09-06T05:11:22.933Z,5.62
2022-09-06T05:12:22.920Z,5.62
2022-09-06T05:13:22.913Z,5.62
2022-09-06T05:14:22.900Z,5.62
2022-09-06T05:15:22.893Z,5.62
2022-09-06T05:16:22.925Z,5.62
2022-09-06T05:17:22.865Z,5.62
2022-09-06T05:18:22.858Z,11.25
2022-09-06T05:19:22.848Z,11.25
2022-09-06T05:20:22.832Z,11.25
2022-09-06T05:21:22.826Z,11.25
2022-09-06T05:22:22.811Z,11.25
2022-09-06T05:23:22.799Z,11.25
2022-09-06T05:24:22.790Z,16.88
2022-09-06T05:25:22.777Z,16.88
2022-09-06T05:26:22.783Z,16.88
2022-09-06T05:27:22.778Z,16.88
2022-09-06T05:28:22.745Z,16.88
2022-09-06T05:29:22.736Z,16.88
2022-09-06T05:30:22.725Z,22.50
2022-09-06T05:31:22.754Z,22.50
2022-09-06T05:32:22.700Z,22.50
2022-09-06T05:33:22.716Z,28.12
2022-09-06T05:34:22.675Z,28.12
2022-09-06T05:35:23.358Z,28.12
2022-09-06T05:36:22.713Z,28.12
2022-09-06T05:37:22.775Z,33.75
2022-09-06T05:38:22.726Z,33.75
2022-09-06T05:39:22.736Z,33.75
2022-09-06T05:40:22.726Z,33.75
2022-09-06T05:41:22.863Z,33.75
2022-09-06T05:42:22.741Z,33.75
2022-09-06T05:43:22.589Z,33.75
2022-09-06T05:44:22.830Z,33.75
2022-09-06T05:45:22.611Z,33.75
2022-09-06T05:46:22.843Z,33.75
2022-09-06T05:47:22.919Z,39.38
2022-09-06T05:48:22.980Z,39.38
2022-09-06T05:49:22.511Z,39.38
2022-09-06T05:50:22.549Z,39.38
2022-09-06T05:51:22.498Z,39.38
2022-09-06T05:52:22.479Z,39.38
2022-09-06T05:53:22.465Z,39.38
2022-09-06T05:54:22.458Z,39.38
2022-09-06T05:55:22.443Z,39.38
2022-09-06T05:56:22.446Z,39.38
2022-09-06T05:57:22.422Z,39.38
2022-09-06T05:58:22.417Z,39.38
2022-09-06T05:59:22.403Z,39.38
2022-09-06T06:00:22.391Z,39.38
2022-09-06T06:01:22.518Z,39.38
2022-09-06T06:02:22.564Z,45.00
2022-09-06T06:03:22.356Z,45.00
2022-09-06T06:04:22.346Z,45.00
2022-09-06T06:05:22.333Z,50.62
2022-09-06T06:06:22.324Z,50.62
2022-09-06T06:07:22.311Z,50.62
2022-09-06T06:08:22.301Z,56.25
2022-09-06T06:09:22.286Z,56.25
2022-09-06T06:10:22.280Z,56.25
2022-09-06T06:11:22.266Z,61.88
2022-09-06T06:12:22.260Z,61.88
2022-09-06T06:13:22.316Z,61.88
2022-09-06T06:14:22.235Z,61.88
2022-09-06T06:15:22.223Z,61.88
2022-09-06T06:16:22.339Z,61.88
2022-09-06T06:17:22.203Z,61.88
2022-09-06T06:18:22.198Z,61.88
2022-09-06T06:19:22.226Z,61.88
2022-09-06T06:20:22.168Z,61.88
2022-09-06T06:21:22.160Z,61.88
2022-09-06T06:22:22.145Z,61.88
2022-09-06T06:23:22.134Z,61.88
2022-09-06T06:24:22.124Z,61.88
2022-09-06T06:25:22.111Z,61.88
2022-09-06T06:26:22.102Z,61.88
2022-09-06T06:27:22.089Z,61.88
2022-09-06T06:28:22.165Z,61.88
2022-09-06T06:29:22.068Z,61.88
2022-09-06T06:30:22.055Z,61.88
2022-09-06T06:31:22.076Z,61.88
2022-09-06T06:32:22.036Z,61.88
2022-09-06T06:33:22.022Z,61.88
2022-09-06T06:34:22.015Z,61.88
2022-09-06T06:35:22.114Z,61.88
2022-09-06T06:36:22.068Z,61.88
2022-09-06T06:37:21.978Z,61.88
2022-09-06T06:38:22.012Z,56.25
2022-09-06T06:39:21.956Z,56.25
2022-09-06T06:40:21.946Z,61.88
2022-09-06T06:41:21.934Z,61.88
2022-09-06T06:42:21.923Z,61.88
2022-09-06T06:43:21.912Z,61.88
2022-09-06T06:44:21.900Z,61.88
2022-09-06T06:45:22.016Z,61.88
2022-09-06T06:46:21.885Z,61.88
2022-09-06T06:47:21.924Z,61.88
2022-09-06T06:48:21.876Z,67.50
2022-09-06T06:49:21.849Z,67.50
2022-09-06T06:50:21.834Z,67.50
2022-09-06T06:51:21.823Z,67.50
2022-09-06T06:52:21.813Z,67.50
2022-09-06T06:53:21.801Z,67.50
2022-09-06T06:54:21.815Z,67.50
2022-09-06T06:55:21.780Z,67.50
2022-09-06T06:56:21.770Z,73.12
2022-09-06T06:57:21.756Z,73.12
2022-09-06T06:58:21.837Z,78.75
2022-09-06T06:59:21.829Z,78.75
2022-09-06T07:00:25.162Z,84.38
2022-09-06T07:01:22.892Z,84.38
2022-09-06T07:02:21.771Z,84.38
2022-09-06T07:03:21.692Z,90.00
2022-09-06T07:04:21.684Z,90.00
2022-09-06T07:06:21.842Z,95.62
2022-09-06T07:08:21.717Z,95.62
2022-09-06T07:09:21.657Z,101.25
2022-09-06T07:10:37.018Z,101.25
2022-09-06T07:11:24.391Z,101.25
2022-09-06T07:12:21.600Z,101.25
2022-09-06T07:13:21.662Z,106.88
2022-09-06T07:14:21.578Z,106.88
2022-09-06T07:15:21.565Z,106.88
2022-09-06T07:16:21.607Z,106.88
2022-09-06T07:17:21.552Z,106.88
2022-09-06T07:18:22.401Z,106.88
2022-09-06T07:20:21.516Z,106.88
2022-09-06T07:21:37.117Z,101.25
2022-09-06T07:22:22.521Z,101.25
2022-09-06T07:24:21.472Z,106.88
2022-09-06T07:25:21.775Z,106.88
2022-09-06T07:26:21.450Z,106.88
2022-09-06T07:28:21.560Z,112.50
2022-09-06T07:29:21.431Z,118.12
2022-09-06T07:30:21.453Z,118.12
2022-09-06T07:32:21.427Z,129.38
2022-09-06T07:33:21.467Z,129.38
2022-09-06T07:34:21.376Z,135.00
2022-09-06T07:35:21.374Z,140.62
2022-09-06T07:36:21.342Z,146.25
2022-09-06T07:37:21.335Z,151.88
2022-09-06T07:38:21.318Z,157.50
2022-09-06T07:39:22.014Z,157.50
2022-09-06T07:40:21.296Z,163.12
2022-09-06T07:41:21.401Z,174.38
2022-09-06T07:42:21.294Z,180.00
2022-09-06T07:43:21.258Z,180.00
2022-09-06T07:44:21.248Z,185.62
2022-09-06T07:45:21.238Z,191.25
2022-09-06T07:46:21.278Z,196.88
2022-09-06T07:48:21.271Z,202.50
2022-09-06T07:49:21.193Z,208.12
2022-09-06T07:51:21.170Z,208.12
2022-09-06T07:53:29.250Z,208.12
2022-09-06T07:54:36.631Z,202.50
2022-09-06T07:55:22.156Z,202.50
2022-09-06T07:56:21.118Z,196.88
2022-09-06T07:57:21.106Z,196.88
2022-09-06T07:58:21.098Z,196.88
2022-09-06T07:59:21.085Z,196.88
2022-09-06T08:00:21.077Z,196.88
2022-09-06T08:01:21.100Z,196.88
2022-09-06T08:02:21.135Z,196.88
2022-09-06T08:03:21.223Z,196.88
2022-09-06T08:04:21.086Z,196.88
2022-09-06T08:06:21.012Z,196.88
2022-09-06T08:09:20.980Z,208.12
2022-09-06T08:10:21.042Z,208.12
2022-09-06T08:11:20.955Z,213.75
2022-09-06T08:12:20.946Z,213.75
2022-09-06T08:13:21.023Z,213.75
2022-09-06T08:14:20.970Z,213.75
2022-09-06T08:15:20.930Z,208.12
2022-09-06T08:16:20.951Z,208.12
2022-09-06T08:17:20.889Z,202.50
2022-09-06T08:18:20.888Z,196.88
2022-09-06T08:19:20.869Z,196.88
2022-09-06T08:20:20.946Z,191.25
2022-09-06T08:21:20.847Z,191.25
2022-09-06T08:22:20.835Z,191.25
2022-09-06T08:23:20.823Z,191.25
2022-09-06T08:24:20.866Z,196.88
2022-09-06T08:25:20.856Z,196.88
2022-09-06T08:26:20.917Z,202.50
2022-09-06T08:27:20.784Z,202.50
2022-09-06T08:28:20.773Z,208.12
2022-09-06T08:29:20.765Z,208.12
2022-09-06T08:30:20.764Z,208.12
2022-09-06T08:31:20.793Z,213.75
2022-09-06T08:32:20.731Z,213.75
2022-09-06T08:33:20.808Z,213.75
2022-09-06T08:34:20.707Z,213.75
2022-09-06T08:35:20.698Z,213.75
2022-09-06T08:36:20.714Z,213.75
2022-09-06T08:37:24.837Z,213.75
2022-09-06T08:38:20.663Z,213.75
2022-09-06T08:39:20.654Z,208.12
2022-09-06T08:40:20.641Z,208.12
2022-09-06T08:41:20.634Z,202.50
2022-09-06T08:42:20.625Z,202.50
2022-09-06T08:43:20.638Z,196.88
2022-09-06T08:45:20.634Z,180.00
2022-09-06T08:46:20.615Z,168.75
2022-09-06T08:47:20.569Z,163.12
2022-09-06T08:48:20.560Z,151.88
2022-09-06T08:49:20.543Z,151.88
2022-09-06T08:50:20.535Z,151.88
2022-09-06T08:51:20.520Z,157.50
2022-09-06T08:52:20.676Z,163.12
2022-09-06T08:53:20.496Z,180.00
2022-09-06T08:54:20.491Z,191.25
2022-09-06T08:55:20.507Z,208.12
2022-09-06T08:56:20.485Z,213.75
2022-09-06T08:57:20.459Z,225.00
2022-09-06T08:58:20.464Z,225.00
2022-09-06T08:59:20.439Z,219.38
2022-09-06T09:00:20.435Z,213.75
2022-09-06T09:01:20.482Z,208.12
2022-09-06T09:02:20.454Z,208.12
2022-09-06T09:03:20.404Z,202.50
2022-09-06T09:04:20.417Z,196.88
2022-09-06T09:05:20.369Z,191.25
2022-09-06T09:06:20.361Z,191.25
2022-09-06T09:07:20.350Z,185.62
2022-09-06T09:08:20.342Z,180.00
2022-09-06T09:09:20.328Z,174.38
2022-09-06T09:10:20.318Z,168.75
2022-09-06T09:11:20.307Z,163.12
2022-09-06T09:12:20.298Z,157.50
2022-09-06T09:13:20.291Z,151.88
2022-09-06T09:14:20.309Z,151.88
2022-09-06T09:15:20.266Z,146.25
2022-09-06T09:16:20.292Z,146.25
2022-09-06T09:17:20.247Z,146.25
2022-09-06T09:18:20.234Z,140.62
2022-09-06T09:19:20.221Z,140.62
2022-09-06T09:20:20.209Z,140.62
2022-09-06T09:21:20.200Z,135.00
2022-09-06T09:22:20.265Z,135.00
2022-09-06T09:23:20.225Z,135.00
2022-09-06T09:24:20.172Z,129.38
2022-09-06T09:25:20.162Z,129.38
2022-09-06T09:26:20.147Z,129.38
2022-09-06T09:27:20.131Z,129.38
2022-09-06T09:28:20.126Z,129.38
2022-09-06T09:29:23.956Z,135.00
2022-09-06T09:31:20.149Z,135.00
2022-09-06T09:32:20.147Z,135.00
2022-09-06T09:33:20.132Z,135.00
2022-09-06T09:34:20.057Z,135.00
2022-09-06T09:35:20.048Z,129.38
2022-09-06T09:36:20.136Z,129.38
2022-09-06T09:38:20.011Z,129.38
2022-09-06T09:39:20.000Z,129.38
2022-09-06T09:40:19.987Z,129.38
2022-09-06T09:41:19.973Z,135.00
2022-09-06T09:42:19.989Z,135.00
2022-09-06T09:43:19.992Z,135.00
2022-09-06T09:44:19.948Z,135.00
2022-09-06T09:45:19.927Z,129.38
2022-09-06T09:46:19.926Z,123.75
2022-09-06T09:47:19.905Z,118.12
2022-09-06T09:48:19.898Z,118.12
2022-09-06T09:49:19.883Z,112.50
2022-09-06T09:50:19.872Z,112.50
2022-09-06T09:51:26.237Z,106.88
2022-09-06T09:52:19.867Z,106.88
2022-09-06T09:53:19.871Z,106.88
2022-09-06T09:54:19.826Z,106.88
2022-09-06T09:55:19.818Z,101.25
2022-09-06T09:56:19.809Z,101.25
2022-09-06T09:57:19.795Z,101.25
2022-09-06T09:58:19.785Z,101.25
2022-09-06T09:59:19.775Z,101.25
2022-09-06T10:00:19.767Z,101.25
2022-09-06T10:01:19.751Z,106.88
2022-09-06T10:02:19.740Z,106.88
2022-09-06T10:03:19.790Z,106.88
2022-09-06T10:05:19.711Z,106.88
2022-09-06T10:07:19.699Z,112.50
2022-09-06T10:08:19.673Z,112.50
2022-09-06T10:09:19.666Z,118.12
2022-09-06T10:10:19.654Z,118.12
2022-09-06T10:11:19.640Z,123.75
2022-09-06T10:12:19.645Z,123.75
2022-09-06T10:13:19.648Z,129.38
2022-09-06T10:14:19.623Z,135.00
2022-09-06T10:15:19.597Z,140.62
2022-09-06T10:16:19.739Z,140.62
2022-09-06T10:17:19.576Z,140.62
2022-09-06T10:18:19.564Z,135.00
2022-09-06T10:19:19.552Z,129.38
2022-09-06T10:20:19.542Z,118.12
2022-09-06T10:21:19.532Z,112.50
2022-09-06T10:22:19.518Z,106.88
2022-09-06T10:24:28.000Z,106.88
2022-09-06T10:25:20.518Z,106.88
2022-09-06T10:26:19.474Z,112.50
2022-09-06T10:27:19.464Z,112.50
2022-09-06T10:28:19.456Z,112.50
2022-09-06T10:29:19.453Z,112.50
2022-09-06T10:30:19.432Z,112.50
2022-09-06T10:31:19.497Z,112.50
2022-09-06T10:32:19.408Z,106.88
2022-09-06T10:33:19.401Z,101.25
2022-09-06T10:34:19.414Z,101.25
2022-09-06T10:35:19.390Z,95.62
2022-09-06T10:36:19.365Z,95.62
2022-09-06T10:37:19.355Z,95.62
2022-09-06T10:38:19.346Z,95.62
2022-09-06T10:39:19.332Z,90.00
2022-09-06T10:40:19.320Z,84.38
2022-09-06T10:41:19.311Z,84.38
2022-09-06T10:42:19.298Z,78.75
2022-09-06T10:43:19.291Z,73.12
2022-09-06T10:44:19.285Z,73.12
2022-09-06T10:45:19.292Z,73.12
2022-09-06T10:46:19.355Z,78.75
2022-09-06T10:47:19.245Z,84.38
2022-09-06T10:48:19.245Z,90.00
2022-09-06T10:49:19.222Z,95.62
2022-09-06T10:50:19.208Z,106.88
2022-09-06T10:51:19.205Z,112.50
2022-09-06T10:52:19.190Z,118.12
2022-09-06T10:53:19.234Z,118.12
2022-09-06T10:54:19.244Z,118.12
2022-09-06T10:55:19.158Z,118.12
2022-09-06T10:56:19.143Z,118.12
2022-09-06T10:58:19.961Z,118.12
2022-09-06T11:00:19.101Z,112.50
2022-09-06T11:01:19.137Z,118.12
2022-09-06T11:02:19.204Z,118.12
2022-09-06T11:04:19.079Z,129.38
2022-09-06T11:06:20.079Z,140.62
2022-09-06T11:07:19.027Z,146.25
2022-09-06T11:09:19.003Z,151.88
2022-09-06T11:10:18.993Z,157.50
2022-09-06T11:11:18.982Z,157.50
2022-09-06T11:12:18.969Z,163.12
2022-09-06T11:13:18.974Z,163.12
2022-09-06T11:14:19.087Z,168.75
2022-09-06T11:15:18.940Z,174.38
2022-09-06T11:16:19.015Z,180.00
2022-09-06T11:17:18.919Z,185.62
2022-09-06T11:18:18.902Z,191.25
2022-09-06T11:19:18.894Z,196.88
2022-09-06T11:20:18.877Z,208.12
2022-09-06T11:21:19.648Z,219.38
2022-09-06T11:22:18.857Z,230.62
2022-09-06T11:23:18.867Z,236.25
2022-09-06T11:24:18.878Z,241.88
2022-09-06T11:25:18.824Z,247.50
2022-09-06T11:26:18.823Z,247.50
2022-09-06T11:27:18.803Z,247.50
2022-09-06T11:28:18.791Z,247.50
2022-09-06T11:29:18.785Z,247.50
2022-09-06T11:30:18.771Z,247.50
2022-09-06T11:32:18.891Z,253.12
2022-09-06T11:33:18.763Z,264.38
2022-09-06T11:34:18.793Z,275.62
2022-09-06T11:35:18.717Z,292.50
2022-09-06T11:36:18.952Z,309.38
2022-09-06T11:37:18.696Z,337.50
2022-09-06T11:38:18.690Z,360.00
2022-09-06T11:39:18.893Z,388.12
2022-09-06T11:40:26.732Z,410.62
2022-09-06T11:41:19.684Z,427.50
2022-09-06T11:42:18.639Z,438.75
2022-09-06T11:43:18.695Z,450.00
2022-09-06T11:44:18.634Z,455.62
2022-09-06T11:45:18.902Z,500.62
2022-09-06T11:46:20.521Z,658.12
2022-09-06T11:47:18.584Z,607.50
2022-09-06T11:48:18.573Z,551.25
2022-09-06T11:49:18.562Z,506.25
2022-09-06T11:50:18.549Z,523.12
2022-09-06T11:51:18.539Z,787.50
2022-09-06T11:52:18.531Z,1130.62
2022-09-06T11:53:18.521Z,973.12
2022-09-06T11:54:18.510Z,1203.75
2022-09-06T11:55:22.627Z,736.88
2022-09-06T11:56:18.555Z,607.50
2022-09-06T11:57:18.499Z,534.38
2022-09-06T11:58:18.472Z,635.62
2022-09-06T11:59:18.463Z,697.50
2022-09-06T12:00:18.442Z,528.75
2022-09-06T12:01:18.435Z,675.00
2022-09-06T12:02:18.613Z,540.00
2022-09-06T12:04:18.402Z,596.25
2022-09-06T12:05:18.415Z,607.50
2022-09-06T12:06:18.416Z,590.62
2022-09-06T12:07:18.375Z,590.62
2022-09-06T12:08:18.611Z,568.12
2022-09-06T12:09:18.349Z,523.12
2022-09-06T12:10:18.337Z,506.25
2022-09-06T12:11:18.324Z,500.62
2022-09-06T12:12:18.316Z,506.25
2022-09-06T12:13:18.308Z,748.12
2022-09-06T12:14:18.295Z,534.38
2022-09-06T12:15:18.283Z,556.88
2022-09-06T12:16:18.501Z,511.88
2022-09-06T12:17:18.310Z,478.12
2022-09-06T12:18:18.248Z,466.88
2022-09-06T12:19:18.241Z,438.75
2022-09-06T12:20:18.227Z,410.62
2022-09-06T12:21:18.219Z,393.75
2022-09-06T12:22:18.208Z,382.50
2022-09-06T12:23:18.199Z,371.25
2022-09-06T12:24:18.186Z,365.62
2022-09-06T12:25:18.178Z,365.62
2022-09-06T12:26:18.164Z,365.62
2022-09-06T12:27:18.154Z,371.25
2022-09-06T12:28:18.203Z,382.50
2022-09-06T12:29:18.436Z,393.75
2022-09-06T12:30:18.130Z,405.00
2022-09-06T12:31:18.509Z,410.62
2022-09-06T12:32:18.102Z,416.25
2022-09-06T12:33:18.133Z,433.12
2022-09-06T12:34:18.105Z,450.00
2022-09-06T12:36:18.172Z,517.50
2022-09-06T12:37:18.197Z,517.50
2022-09-06T12:38:18.255Z,517.50
2022-09-06T12:39:18.285Z,528.75
2022-09-06T12:40:18.026Z,534.38
2022-09-06T12:41:18.009Z,545.62
2022-09-06T12:42:17.990Z,551.25
2022-09-06T12:43:17.996Z,607.50
2022-09-06T12:44:17.973Z,618.75
2022-09-06T12:45:17.972Z,815.62
2022-09-06T12:46:18.018Z,596.25
2022-09-06T12:47:17.943Z,624.38
2022-09-06T12:48:17.948Z,635.62
2022-09-06T12:49:17.950Z,641.25
2022-09-06T12:50:17.958Z,720.00
2022-09-06T12:51:17.895Z,680.62
2022-09-06T12:52:17.885Z,720.00
2022-09-06T12:53:20.439Z,663.75
2022-09-06T12:54:17.863Z,765.00
2022-09-06T12:55:17.853Z,759.38
2022-09-06T12:56:17.842Z,596.25
2022-09-06T12:57:17.836Z,551.25
2022-09-06T12:58:17.866Z,534.38
2022-09-06T12:59:17.821Z,517.50
2022-09-06T13:00:17.805Z,500.62
2022-09-06T13:01:17.940Z,495.00
2022-09-06T13:02:18.164Z,495.00
2022-09-06T13:03:17.771Z,489.38
2022-09-06T13:04:17.767Z,483.75
2022-09-06T13:05:17.750Z,472.50
2022-09-06T13:06:17.751Z,472.50
2022-09-06T13:07:17.859Z,461.25
2022-09-06T13:08:17.715Z,450.00
2022-09-06T13:09:17.709Z,433.12
2022-09-06T13:10:17.694Z,421.88
2022-09-06T13:11:17.684Z,416.25
2022-09-06T13:12:17.674Z,410.62
2022-09-06T13:13:17.672Z,410.62
2022-09-06T13:14:17.655Z,416.25
2022-09-06T13:15:17.644Z,427.50
2022-09-06T13:16:17.706Z,455.62
2022-09-06T13:17:17.705Z,489.38
2022-09-06T13:18:17.612Z,506.25